createdAt,value
2018-11-23T00:00:31.135Z,98758.70
2018-11-23T00:03:19.797Z,98766.00
2018-11-23T00:05:49.964Z,98768.19
2018-11-23T00:08:20.416Z,98769.27
2018-11-23T00:10:50.054Z,98772.77
2018-11-23T00:13:20.067Z,98765.63
2018-11-23T00:15:50.097Z,98763.55
2018-11-23T00:18:19.718Z,98767.97
2018-11-23T00:20:49.812Z,98770.01
2018-11-23T00:23:19.450Z,98763.78
2018-11-23T00:25:49.487Z,98771.33
2018-11-23T00:28:19.121Z,98772.64
2018-11-23T00:30:49.077Z,98773.27
2018-11-23T00:33:18.700Z,98776.38
2018-11-23T00:35:48.319Z,98785.16
2018-11-23T00:38:17.966Z,98783.03
2018-11-23T00:40:47.603Z,98783.22
2018-11-23T00:43:35.868Z,98788.30
2018-11-23T00:46:05.501Z,98791.65
2018-11-23T00:48:35.144Z,98800.73
2018-11-23T00:51:05.276Z,98801.16
2018-11-23T00:53:34.910Z,98795.44
2018-11-23T00:56:04.540Z,98799.08
2018-11-23T00:58:34.192Z,98801.27
2018-11-23T01:01:03.820Z,98799.31
2018-11-23T01:03:33.527Z,98812.23
2018-11-23T01:06:03.192Z,98807.15
2018-11-23T01:08:32.868Z,98810.50
2018-11-23T01:11:02.508Z,98803.97
2018-11-23T01:13:32.166Z,98807.22
2018-11-23T01:16:01.790Z,98807.30
2018-11-23T01:18:31.429Z,98806.13
2018-11-23T01:21:01.774Z,98811.10
2018-11-23T01:23:31.825Z,98804.77
2018-11-23T01:26:01.806Z,98809.67
2018-11-23T01:28:32.140Z,98811.48
2018-11-23T01:31:01.895Z,98799.28
2018-11-23T01:33:31.946Z,98801.11
2018-11-23T01:36:01.988Z,98795.28
2018-11-23T01:38:32.321Z,98794.55
2018-11-23T01:41:02.306Z,98794.66
2018-11-23T01:43:32.042Z,98789.40
2018-11-23T01:46:01.715Z,98792.14
2018-11-23T01:48:31.383Z,98789.79
2018-11-23T01:51:01.385Z,98792.16
2018-11-23T01:53:49.910Z,98790.55
2018-11-23T01:56:19.953Z,98785.88
2018-11-23T01:58:49.992Z,98792.89
2018-11-23T02:01:20.097Z,98790.73
2018-11-23T02:03:49.765Z,98778.54
2018-11-23T02:06:20.138Z,98779.71
2018-11-23T02:08:50.253Z,98772.68
2018-11-23T02:11:20.299Z,98785.75
2018-11-23T02:13:49.970Z,98779.58
2018-11-23T02:16:19.607Z,98785.16
2018-11-23T02:18:49.627Z,98785.86
2018-11-23T02:21:19.286Z,98784.14
2018-11-23T02:23:49.287Z,98780.14
2018-11-23T02:26:18.927Z,98781.09
2018-11-23T02:29:07.175Z,98777.39
2018-11-23T02:31:38.785Z,98780.80
2018-11-23T02:34:08.759Z,98779.48
2018-11-23T02:36:38.380Z,98781.52
2018-11-23T02:39:09.253Z,98773.66
2018-11-23T02:41:39.683Z,98774.84
2018-11-23T02:44:09.322Z,98777.72
2018-11-23T02:46:38.933Z,98777.56
2018-11-23T02:49:08.574Z,98781.61
2018-11-23T02:51:38.607Z,98772.38
2018-11-23T02:54:08.262Z,98774.27
2018-11-23T02:56:45.526Z,98775.75
2018-11-23T02:59:15.761Z,98779.81
2018-11-23T03:01:45.833Z,98781.63
2018-11-23T03:04:15.469Z,98792.56
2018-11-23T03:06:45.149Z,98781.48
2018-11-23T03:09:14.751Z,98786.80
2018-11-23T03:11:44.516Z,98785.97
2018-11-23T03:14:14.187Z,98779.92
2018-11-23T03:16:44.169Z,98775.31
2018-11-23T03:19:13.806Z,98771.14
2018-11-23T03:21:43.886Z,98780.34
2018-11-23T03:24:13.567Z,98780.57
2018-11-23T03:26:43.650Z,98777.72
2018-11-23T03:29:13.295Z,98781.95
2018-11-23T03:31:43.354Z,98780.62
2018-11-23T03:34:13.800Z,98788.78
2018-11-23T03:36:44.302Z,98788.78
2018-11-23T03:39:13.962Z,98791.93
2018-11-23T03:41:43.969Z,98797.28
2018-11-23T03:44:13.632Z,98788.86
2018-11-23T03:46:43.252Z,98798.77
2018-11-23T03:49:12.960Z,98791.36
2018-11-23T03:51:43.416Z,98801.25
2018-11-23T03:54:13.838Z,98801.91
2018-11-23T03:56:43.858Z,98796.97
2018-11-23T03:59:13.881Z,98803.74
2018-11-23T04:01:44.328Z,98801.97
2018-11-23T04:04:13.957Z,98804.13
2018-11-23T04:06:43.631Z,98805.37
2018-11-23T04:09:13.261Z,98806.88
2018-11-23T04:11:42.966Z,98807.52
2018-11-23T04:14:12.535Z,98809.38
2018-11-23T04:16:42.175Z,98807.89
2018-11-23T04:19:13.035Z,98813.82
2018-11-23T04:21:42.953Z,98812.81
2018-11-23T04:24:12.809Z,98809.83
2018-11-23T04:26:43.092Z,98800.83
2018-11-23T04:29:13.348Z,98808.69
2018-11-23T04:31:43.427Z,98807.77
2018-11-23T04:34:13.092Z,98805.31
2018-11-23T04:36:42.737Z,98797.18
2018-11-23T04:39:12.395Z,98802.34
2018-11-23T04:41:46.361Z,98800.20
2018-11-23T04:44:12.550Z,98806.59
2018-11-23T04:46:42.545Z,98811.09
2018-11-23T04:49:12.558Z,98813.40
2018-11-23T04:51:42.572Z,98808.66
2018-11-23T04:54:12.209Z,98814.01
2018-11-23T04:56:42.616Z,98814.03
2018-11-23T04:59:12.271Z,98809.20
2018-11-23T05:01:41.936Z,98808.18
2018-11-23T05:04:11.947Z,98816.89
2018-11-23T05:06:41.977Z,98823.98
2018-11-23T05:09:11.731Z,98821.20
2018-11-23T05:11:41.366Z,98832.86
2018-11-23T05:14:11.029Z,98840.89
2018-11-23T05:16:59.596Z,98841.74
2018-11-23T05:19:29.271Z,98840.85
2018-11-23T05:21:58.921Z,98843.76
2018-11-23T05:24:47.184Z,98840.98
2018-11-23T05:27:16.850Z,98846.35
2018-11-23T05:29:46.508Z,98845.22
2018-11-23T05:32:16.149Z,98841.16
2018-11-23T05:34:45.791Z,98840.76
2018-11-23T05:37:15.867Z,98840.27
2018-11-23T05:39:45.524Z,98842.70
2018-11-23T05:42:15.570Z,98842.27
2018-11-23T05:44:46.691Z,98851.19
2018-11-23T05:47:16.246Z,98853.09
2018-11-23T05:49:46.714Z,98851.11
2018-11-23T05:52:17.315Z,98849.39
2018-11-23T05:54:46.945Z,98846.03
2018-11-23T05:57:16.982Z,98849.34
2018-11-23T05:59:47.000Z,98850.49
2018-11-23T06:02:16.626Z,98863.31
2018-11-23T06:04:46.262Z,98857.41
2018-11-23T06:07:16.339Z,98863.01
2018-11-23T06:09:45.982Z,98857.70
2018-11-23T06:12:15.601Z,98859.94
2018-11-23T06:14:45.609Z,98866.08
2018-11-23T06:17:15.618Z,98866.00
2018-11-23T06:19:45.275Z,98865.31
2018-11-23T06:22:15.408Z,98860.75
2018-11-23T06:24:45.425Z,98854.48
2018-11-23T06:27:15.391Z,98865.12
2018-11-23T06:29:45.011Z,98865.52
2018-11-23T06:32:52.833Z,98859.70
2018-11-23T06:35:22.482Z,98856.89
2018-11-23T06:37:52.588Z,98859.31
2018-11-23T06:40:40.830Z,98863.94
2018-11-23T06:43:10.475Z,98871.68
2018-11-23T06:45:41.938Z,98877.27
2018-11-23T06:48:12.385Z,98884.75
2018-11-23T06:50:42.007Z,98880.23
2018-11-23T06:53:11.660Z,98882.52
2018-11-23T06:55:41.749Z,98879.70
2018-11-23T06:58:11.406Z,98883.95
2018-11-23T07:00:41.436Z,98878.38
2018-11-23T07:03:11.086Z,98883.25
2018-11-23T07:05:40.777Z,98886.77
2018-11-23T07:08:29.057Z,98891.54
2018-11-23T07:11:17.366Z,98899.80
2018-11-23T07:13:47.410Z,98891.78
2018-11-23T07:16:17.051Z,98884.59
2018-11-23T07:18:46.738Z,98883.91
2018-11-23T07:21:21.407Z,98886.94
2018-11-23T07:23:46.041Z,98886.28
2018-11-23T07:26:15.713Z,98886.78
2018-11-23T07:28:45.708Z,98887.23
2018-11-23T07:31:16.111Z,98883.92
2018-11-23T07:34:05.061Z,98870.09
2018-11-23T07:36:35.405Z,98880.03
2018-11-23T07:39:05.925Z,98869.73
2018-11-23T07:42:13.395Z,98872.82
2018-11-23T07:44:43.028Z,98871.92
2018-11-23T07:47:12.687Z,98868.76
2018-11-23T07:49:42.685Z,98876.06
2018-11-23T07:52:12.327Z,98873.80
2018-11-23T07:54:42.343Z,98863.05
2018-11-23T07:57:12.197Z,98862.40
2018-11-23T07:59:42.231Z,98862.27
2018-11-23T08:02:12.854Z,98864.08
2018-11-23T08:04:43.299Z,98866.71
2018-11-23T08:07:13.377Z,98875.08
2018-11-23T08:09:43.245Z,98872.20
2018-11-23T08:12:12.902Z,98870.21
2018-11-23T08:15:01.518Z,98866.34
2018-11-23T08:17:31.138Z,98854.19
2018-11-23T08:20:00.791Z,98863.73
2018-11-23T08:22:30.842Z,98864.34
2018-11-23T08:25:00.879Z,98864.27
2018-11-23T08:27:50.866Z,98854.24
2018-11-23T08:30:39.789Z,98854.24
2018-11-23T08:33:09.420Z,98862.80
2018-11-23T08:35:39.944Z,98857.84
2018-11-23T08:38:09.593Z,98855.41
2018-11-23T08:40:39.247Z,98864.58
2018-11-23T08:43:08.895Z,98864.13
2018-11-23T08:45:38.860Z,98867.74
2018-11-23T08:48:08.497Z,98868.75
2018-11-23T08:50:38.099Z,98864.19
2018-11-23T08:53:07.739Z,98864.13
2018-11-23T08:55:37.758Z,98871.28
2018-11-23T08:58:07.488Z,98870.23
2018-11-23T09:00:38.000Z,98872.44
2018-11-23T09:03:08.339Z,98877.75
2018-11-23T09:05:37.997Z,98884.62
2018-11-23T09:08:07.814Z,98886.47
2018-11-23T09:10:37.795Z,98886.22
2018-11-23T09:13:08.208Z,98886.53
2018-11-23T09:15:38.292Z,98889.19
2018-11-23T09:18:08.363Z,98887.32
2018-11-23T09:20:38.284Z,98892.98
2018-11-23T09:23:08.373Z,98893.61
2018-11-23T09:25:38.006Z,98901.33
2018-11-23T09:28:07.652Z,98891.03
2018-11-23T09:30:37.293Z,98889.33
2018-11-23T09:33:06.915Z,98899.36
2018-11-23T09:35:36.555Z,98902.34
2018-11-23T09:38:06.467Z,98896.02
2018-11-23T09:40:36.506Z,98892.30
2018-11-23T09:43:06.279Z,98893.66
2018-11-23T09:45:36.128Z,98875.66
2018-11-23T09:48:06.545Z,98878.35
2018-11-23T09:50:54.801Z,98880.89
2018-11-23T09:53:24.839Z,98875.09
2018-11-23T09:55:54.458Z,98877.80
2018-11-23T09:58:24.509Z,98884.03
2018-11-23T10:00:54.482Z,98872.32
2018-11-23T10:03:24.127Z,98860.09
2018-11-23T10:05:54.199Z,98847.09
2018-11-23T10:08:23.860Z,98848.81
2018-11-23T10:10:53.514Z,98829.06
2018-11-23T10:13:23.561Z,98833.59
2018-11-23T10:15:53.793Z,98829.66
2018-11-23T10:18:23.428Z,98814.42
2018-11-23T10:20:53.806Z,98814.54
2018-11-23T10:23:23.457Z,98824.09
2018-11-23T10:25:53.115Z,98817.25
2018-11-23T10:28:23.024Z,98821.48
2018-11-23T10:30:52.669Z,98800.84
2018-11-23T10:33:22.846Z,98788.13
2018-11-23T10:35:52.358Z,98784.71
2018-11-23T10:38:21.981Z,98780.38
2018-11-23T10:41:10.972Z,98769.57
2018-11-23T10:43:40.611Z,98763.77
2018-11-23T10:46:11.038Z,98769.94
2018-11-23T10:48:41.068Z,98773.22
2018-11-23T10:51:29.681Z,98776.38
2018-11-23T10:53:59.343Z,98777.08
2018-11-23T10:56:29.006Z,98787.09
2018-11-23T10:58:58.687Z,98795.16
2018-11-23T11:01:47.195Z,98792.17
2018-11-23T11:04:35.885Z,98797.61
2018-11-23T11:07:24.368Z,98794.84
2018-11-23T11:09:54.404Z,98784.70
2018-11-23T11:12:24.037Z,98783.44
2018-11-23T11:14:54.055Z,98787.28
2018-11-23T11:17:24.074Z,98782.15
2018-11-23T11:19:53.727Z,98777.67
2018-11-23T11:22:23.356Z,98773.37
2018-11-23T11:24:54.129Z,98776.69
2018-11-23T11:27:24.131Z,98770.66
2018-11-23T11:29:53.779Z,98770.53
2018-11-23T11:32:23.887Z,98770.56
2018-11-23T11:34:54.412Z,98759.34
2018-11-23T11:37:24.339Z,98763.02
2018-11-23T11:39:53.969Z,98749.58
2018-11-23T11:42:43.318Z,98744.50
2018-11-23T11:45:14.448Z,98741.59
2018-11-23T11:47:44.787Z,98741.38
2018-11-23T11:50:15.125Z,98739.42
2018-11-23T11:52:46.379Z,98733.94
2018-11-23T11:55:17.388Z,98729.49
2018-11-23T11:57:48.429Z,98724.39
2018-11-23T12:00:36.665Z,98715.88
2018-11-23T12:03:07.452Z,98710.55
2018-11-23T12:05:37.472Z,98700.35
2018-11-23T12:08:07.320Z,98695.47
2018-11-23T12:10:56.773Z,98695.47
2018-11-23T12:13:26.271Z,98696.42
2018-11-23T12:15:55.959Z,98691.17
2018-11-23T12:18:25.783Z,98685.88
2018-11-23T12:20:55.438Z,98688.84
2018-11-23T12:23:26.242Z,98679.66
2018-11-23T12:25:55.886Z,98681.44
2018-11-23T12:28:25.959Z,98675.14
2018-11-23T12:30:55.642Z,98682.55
2018-11-23T12:33:45.041Z,98682.08
2018-11-23T12:36:15.578Z,98677.48
2018-11-23T12:38:45.203Z,98678.73
2018-11-23T12:41:14.858Z,98674.59
2018-11-23T12:43:44.486Z,98680.61
2018-11-23T12:46:14.441Z,98673.75
2018-11-23T12:48:44.467Z,98681.08
2018-11-23T12:51:14.093Z,98672.63
2018-11-23T12:53:44.102Z,98666.36
2018-11-23T12:56:13.740Z,98672.98
2018-11-23T12:58:43.413Z,98666.81
2018-11-23T13:01:13.011Z,98664.93
2018-11-23T13:03:43.058Z,98669.85
2018-11-23T13:06:13.063Z,98658.58
2018-11-23T13:08:43.296Z,98650.52
2018-11-23T13:11:13.311Z,98649.44
2018-11-23T13:13:42.976Z,98657.47
2018-11-23T13:16:32.642Z,98651.31
2018-11-23T13:19:02.936Z,98643.16
2018-11-23T13:21:32.939Z,98640.62
2018-11-23T13:24:03.167Z,98631.41
2018-11-23T13:26:33.003Z,98627.59
2018-11-23T13:29:10.833Z,98620.44
2018-11-23T13:31:32.307Z,98619.65
2018-11-23T13:34:02.340Z,98609.22
2018-11-23T13:36:32.764Z,98605.81
2018-11-23T13:39:02.765Z,98604.32
2018-11-23T13:41:51.654Z,98594.67
2018-11-23T13:44:21.706Z,98605.67
2018-11-23T13:46:51.578Z,98592.81
2018-11-23T13:49:21.624Z,98588.58
2018-11-23T13:51:51.730Z,98588.75
2018-11-23T13:54:21.356Z,98588.41
2018-11-23T13:56:51.472Z,98583.03
2018-11-23T13:59:21.091Z,98578.61
2018-11-23T14:01:50.723Z,98579.75
2018-11-23T14:04:20.381Z,98577.13
2018-11-23T14:06:50.035Z,98573.45
2018-11-23T14:09:20.095Z,98572.91
2018-11-23T14:11:49.735Z,98575.09
2018-11-23T14:14:19.370Z,98577.89
2018-11-23T14:16:49.488Z,98572.11
2018-11-23T14:19:20.016Z,98568.86
2018-11-23T14:22:08.875Z,98565.35
2018-11-23T14:24:38.514Z,98565.35
2018-11-23T14:27:08.494Z,98561.30
2018-11-23T14:29:38.914Z,98558.85
2018-11-23T14:32:08.578Z,98550.20
2018-11-23T14:34:38.559Z,98548.15
2018-11-23T14:37:08.206Z,98539.89
2018-11-23T14:39:37.833Z,98541.70
2018-11-23T14:42:08.406Z,98547.58
2018-11-23T14:44:38.466Z,98541.27
2018-11-23T14:47:08.091Z,98548.81
2018-11-23T14:49:37.746Z,98537.37
2018-11-23T14:52:08.291Z,98529.64
2018-11-23T14:54:42.642Z,98524.55
2018-11-23T14:57:07.921Z,98529.78
2018-11-23T14:59:37.580Z,98532.11
2018-11-23T15:02:07.630Z,98521.69
2018-11-23T15:04:37.639Z,98528.25
2018-11-23T15:07:07.667Z,98524.64
2018-11-23T15:09:37.735Z,98511.47
2018-11-23T15:12:07.446Z,98513.06
2018-11-23T15:14:37.160Z,98510.82
2018-11-23T15:17:14.730Z,98480.75
2018-11-23T15:19:45.256Z,98498.63
2018-11-23T15:22:15.696Z,98510.33
2018-11-23T15:24:45.801Z,98504.47
2018-11-23T15:27:15.531Z,98508.39
2018-11-23T15:29:45.148Z,98507.63
2018-11-23T15:32:14.789Z,98505.33
2018-11-23T15:34:44.446Z,98499.27
2018-11-23T15:37:14.500Z,98504.82
2018-11-23T15:39:44.120Z,98498.84
2018-11-23T15:42:13.763Z,98495.16
2018-11-23T15:44:43.835Z,98499.87
2018-11-23T15:47:14.254Z,98500.80
2018-11-23T15:49:44.322Z,98499.31
2018-11-23T15:52:14.385Z,98496.03
2018-11-23T15:54:44.333Z,98503.25
2018-11-23T15:57:14.346Z,98493.13
2018-11-23T15:59:43.978Z,98500.23
2018-11-23T16:02:13.609Z,98501.03
2018-11-23T16:05:01.878Z,98495.55
2018-11-23T16:07:34.392Z,98487.95
2018-11-23T16:10:04.303Z,98487.95
2018-11-23T16:12:33.927Z,98493.05
2018-11-23T16:15:03.951Z,98492.28
2018-11-23T16:17:34.082Z,98491.59
2018-11-23T16:20:04.094Z,98495.98
2018-11-23T16:22:33.879Z,98611.63
2018-11-23T16:25:03.832Z,98500.30
2018-11-23T16:27:34.044Z,98501.50
2018-11-23T16:30:03.465Z,98483.13
2018-11-23T16:32:33.963Z,98503.94
2018-11-23T16:35:03.619Z,98437.04
2018-11-23T16:37:33.276Z,98504.95
2018-11-23T16:40:03.205Z,98504.88
2018-11-23T16:42:33.245Z,98501.63
2018-11-23T16:45:03.756Z,98490.64
2018-11-23T16:47:53.024Z,98488.19
2018-11-23T16:50:22.832Z,98488.19
2018-11-23T16:52:52.676Z,98489.30
2018-11-23T16:55:22.995Z,98489.38
2018-11-23T16:57:54.086Z,98487.41
2018-11-23T17:00:24.971Z,98488.64
2018-11-23T17:02:55.442Z,98487.02
2018-11-23T17:05:43.697Z,98481.77
2018-11-23T17:08:14.034Z,98480.75
2018-11-23T17:10:43.699Z,98471.99
2018-11-23T17:13:13.309Z,98463.38
2018-11-23T17:15:42.973Z,98458.05
2018-11-23T17:18:12.951Z,98464.25
2018-11-23T17:20:43.065Z,98458.62
2018-11-23T17:23:13.689Z,98456.97
2018-11-23T17:26:02.246Z,98460.61
2018-11-23T17:28:32.299Z,98450.98
2018-11-23T17:31:02.041Z,98438.59
2018-11-23T17:33:50.636Z,98441.97
2018-11-23T17:36:20.350Z,98445.08
2018-11-23T17:38:50.345Z,98434.01
2018-11-23T17:41:19.991Z,98432.22
2018-11-23T17:43:49.639Z,98425.66
2018-11-23T17:46:19.306Z,98426.87
2018-11-23T17:48:48.951Z,98423.23
2018-11-23T17:51:18.601Z,98416.47
2018-11-23T17:53:48.207Z,98412.89
2018-11-23T17:56:17.848Z,98416.50
2018-11-23T17:58:48.189Z,98414.06
2018-11-23T18:01:17.831Z,98416.19
2018-11-23T18:03:47.477Z,98420.95
2018-11-23T18:06:17.609Z,98409.20
2018-11-23T18:08:47.245Z,98409.98
2018-11-23T18:11:17.281Z,98418.52
2018-11-23T18:13:47.486Z,98423.02
2018-11-23T18:16:17.518Z,98409.37
2018-11-23T18:18:47.148Z,98409.73
2018-11-23T18:21:16.794Z,98408.93
2018-11-23T18:23:46.864Z,98403.95
2018-11-23T18:26:16.920Z,98397.39
2018-11-23T18:28:47.125Z,98398.39
2018-11-23T18:31:16.825Z,98394.11
2018-11-23T18:33:46.468Z,98390.47
2018-11-23T18:36:16.456Z,98390.13
2018-11-23T18:38:46.476Z,98393.42
2018-11-23T18:41:16.101Z,98391.38
2018-11-23T18:43:45.738Z,98401.86
2018-11-23T18:46:15.366Z,98394.02
2018-11-23T18:48:45.722Z,98393.48
2018-11-23T18:51:15.340Z,98387.53
2018-11-23T18:53:45.452Z,98384.98
2018-11-23T18:56:15.784Z,98386.13
2018-11-23T18:58:45.431Z,98378.01
2018-11-23T19:01:15.074Z,98366.34
2018-11-23T19:03:45.026Z,98362.44
2018-11-23T19:06:14.674Z,98357.58
2018-11-23T19:08:45.152Z,98359.63
2018-11-23T19:11:14.837Z,98352.09
2018-11-23T19:13:44.475Z,98351.01
2018-11-23T19:16:33.153Z,98348.98
2018-11-23T19:19:02.842Z,98348.98
2018-11-23T19:21:32.448Z,98334.23
2018-11-23T19:24:02.461Z,98330.39
2018-11-23T19:26:32.112Z,98323.45
2018-11-23T19:29:02.619Z,98323.82
2018-11-23T19:31:32.287Z,98316.95
2018-11-23T19:34:01.922Z,98319.22
2018-11-23T19:36:31.543Z,98315.36
2018-11-23T19:39:01.198Z,98320.98
2018-11-23T19:41:30.849Z,98321.52
2018-11-23T19:44:19.447Z,98297.23
2018-11-23T19:47:07.719Z,98297.23
2018-11-23T19:49:37.331Z,98289.45
2018-11-23T19:52:07.625Z,98291.84
2018-11-23T19:54:37.244Z,98283.89
2018-11-23T19:57:07.378Z,98275.41
2018-11-23T19:59:37.026Z,98273.36
2018-11-23T20:02:06.659Z,98259.06
2018-11-23T20:04:36.777Z,98256.63
2018-11-23T20:07:06.460Z,98252.78
2018-11-23T20:09:39.976Z,98247.94
2018-11-23T20:12:07.169Z,98244.36
2018-11-23T20:14:36.849Z,98242.36
2018-11-23T20:17:06.734Z,98233.16
2018-11-23T20:19:36.729Z,98234.50
2018-11-23T20:22:06.388Z,98234.42
2018-11-23T20:24:36.017Z,98231.78
2018-11-23T20:27:06.060Z,98221.69
2018-11-23T20:29:35.688Z,98218.64
2018-11-23T20:32:05.707Z,98206.50
2018-11-23T20:34:35.322Z,98204.16
2018-11-23T20:37:04.967Z,98203.46
2018-11-23T20:39:53.540Z,98201.20
2018-11-23T20:42:23.203Z,98191.58
2018-11-23T20:44:52.823Z,98183.74
2018-11-23T20:47:22.568Z,98180.13
2018-11-23T20:49:52.617Z,98183.24
2018-11-23T20:52:22.285Z,98169.84
2018-11-23T20:54:51.928Z,98166.63
2018-11-23T20:57:22.613Z,98161.66
2018-11-23T20:59:52.255Z,98150.25
2018-11-23T21:02:21.911Z,98148.35
2018-11-23T21:04:51.558Z,98140.51
2018-11-23T21:07:21.188Z,98135.02
2018-11-23T21:09:51.264Z,98128.77
2018-11-23T21:12:21.281Z,98132.38
2018-11-23T21:14:50.989Z,98133.88
2018-11-23T21:17:20.916Z,98132.98
2018-11-23T21:19:50.932Z,98118.28
2018-11-23T21:22:20.561Z,98131.02
2018-11-23T21:24:50.575Z,98138.02
2018-11-23T21:27:20.217Z,98144.25
2018-11-23T21:29:49.871Z,98153.40
2018-11-23T21:32:19.906Z,98157.84
2018-11-23T21:34:49.913Z,98159.66
2018-11-23T21:37:19.910Z,98153.47
2018-11-23T21:39:49.997Z,98154.80
2018-11-23T21:42:19.645Z,98147.53
2018-11-23T21:44:49.286Z,98138.27
2018-11-23T21:47:19.734Z,98126.95
2018-11-23T21:49:49.374Z,98112.97
2018-11-23T21:52:38.031Z,98109.61
2018-11-23T21:55:09.629Z,98103.18
2018-11-23T21:57:40.245Z,98096.70
2018-11-23T22:00:14.306Z,98094.50
2018-11-23T22:02:44.703Z,98085.84
2018-11-23T22:05:14.435Z,98071.56
2018-11-23T22:07:44.098Z,98069.51
2018-11-23T22:10:15.204Z,98068.27
2018-11-23T22:12:45.394Z,98064.06
2018-11-23T22:15:34.664Z,98053.49
2018-11-23T22:18:04.789Z,98048.30
2018-11-23T22:20:34.731Z,98059.96
2018-11-23T22:23:04.803Z,98052.44
2018-11-23T22:25:34.454Z,98043.81
2018-11-23T22:28:04.089Z,98049.91
2018-11-23T22:30:33.719Z,98051.25
2018-11-23T22:33:04.321Z,98047.40
2018-11-23T22:35:33.954Z,98048.48
2018-11-23T22:38:03.609Z,98052.38
2018-11-23T22:40:33.259Z,98053.02
2018-11-23T22:43:03.591Z,98060.88
2018-11-23T22:45:33.629Z,98064.84
2018-11-23T22:48:03.678Z,98071.69
2018-11-23T22:50:34.138Z,98060.00
2018-11-23T22:53:22.408Z,98060.13
2018-11-23T22:55:52.039Z,98055.72
2018-11-23T22:58:22.073Z,98048.70
2018-11-23T23:01:10.316Z,98039.07
2018-11-23T23:03:39.973Z,98037.38
2018-11-23T23:06:09.619Z,98031.09
2018-11-23T23:08:39.605Z,98033.80
2018-11-23T23:11:09.633Z,98040.46
2018-11-23T23:13:40.069Z,98035.13
2018-11-23T23:16:10.108Z,98030.53
2018-11-23T23:18:39.733Z,98029.19
2018-11-23T23:21:27.978Z,98023.47
2018-11-23T23:23:57.648Z,98021.75
2018-11-23T23:26:46.204Z,98031.98
2018-11-23T23:29:34.768Z,98036.38
2018-11-23T23:32:04.453Z,98017.97
2018-11-23T23:34:34.810Z,98022.11
2018-11-23T23:37:04.817Z,98018.03
2018-11-23T23:39:34.441Z,98013.58
2018-11-23T23:42:04.063Z,98009.59
2018-11-23T23:44:34.083Z,98004.34
2018-11-23T23:47:04.112Z,97999.30
2018-11-23T23:49:33.746Z,97991.05
2018-11-23T23:52:03.379Z,97983.14
2018-11-23T23:54:33.854Z,97991.87
2018-11-23T23:57:03.467Z,97988.83
2018-11-23T23:59:52.321Z,97989.73
